sensor_id;sensor_type;location;lat;lon;timestamp;pressure;altitude;pressure_sealevel;temperature;humidity
66880;BME280;53789;51.392;10.234;2023-02-23T00:00:16;97822.78;;;7.58;79.90
66880;BME280;53789;51.392;10.234;2023-02-23T00:00:36;97822.78;;;7.58;79.90
66880;BME280;53789;51.392;10.234;2023-02-23T00:00:57;97821.19;;;7.57;80.23
66880;BME280;53789;51.392;10.234;2023-02-23T00:01:20;97821.19;;;7.57;81.11
66880;BME280;53789;51.392;10.234;2023-02-23T00:01:41;97823.09;;;7.57;80.29
66880;BME280;53789;51.392;10.234;2023-02-23T00:02:01;97825.03;;;7.56;81.00
66880;BME280;53789;51.392;10.234;2023-02-23T00:02:21;97817.91;;;7.55;80.22
66880;BME280;53789;51.392;10.234;2023-02-23T00:02:42;97816.31;;;7.54;80.86
66880;BME280;53789;51.392;10.234;2023-02-23T00:03:02;97817.91;;;7.55;81.33
66880;BME280;53789;51.392;10.234;2023-02-23T00:03:22;97819.84;;;7.55;81.08
66880;BME280;53789;51.392;10.234;2023-02-23T00:03:44;97819.84;;;7.55;80.43
66880;BME280;53789;51.392;10.234;2023-02-23T00:04:05;97817.09;;;7.55;80.46
66880;BME280;53789;51.392;10.234;2023-02-23T00:04:25;97820.94;;;7.54;80.32
66880;BME280;53789;51.392;10.234;2023-02-23T00:04:46;97827.56;;;7.53;80.18
66880;BME280;53789;51.392;10.234;2023-02-23T00:05:06;97821.25;;;7.52;81.38
66880;BME280;53789;51.392;10.234;2023-02-23T00:05:30;97827.25;;;7.54;81.21
66880;BME280;53789;51.392;10.234;2023-02-23T00:05:50;97824.81;;;7.53;81.33
66880;BME280;53789;51.392;10.234;2023-02-23T00:06:11;97818.81;;;7.51;80.36
66880;BME280;53789;51.392;10.234;2023-02-23T00:06:36;97819.91;;;7.50;81.24
66880;BME280;53789;51.392;10.234;2023-02-23T00:06:56;97821.84;;;7.49;80.06
66880;BME280;53789;51.392;10.234;2023-02-23T00:07:17;97822.66;;;7.50;80.30
66880;BME280;53789;51.392;10.234;2023-02-23T00:07:37;97826.81;;;7.47;80.30
66880;BME280;53789;51.392;10.234;2023-02-23T00:07:57;97826.81;;;7.47;80.28
66880;BME280;53789;51.392;10.234;2023-02-23T00:08:17;97827.09;;;7.46;80.36
66880;BME280;53789;51.392;10.234;2023-02-23T00:08:39;97825.16;;;7.46;80.08
66880;BME280;53789;51.392;10.234;2023-02-23T00:08:59;97825.47;;;7.44;80.22
66880;BME280;53789;51.392;10.234;2023-02-23T00:09:20;97821.94;;;7.44;80.94
66880;BME280;53789;51.392;10.234;2023-02-23T00:09:40;97823.81;;;7.43;80.09
66880;BME280;53789;51.392;10.234;2023-02-23T00:10:00;97817.53;;;7.43;80.40
66880;BME280;53789;51.392;10.234;2023-02-23T00:10:22;97821.66;;;7.40;81.17
66880;BME280;53789;51.392;10.234;2023-02-23T00:10:42;97823.59;;;7.40;80.46
66880;BME280;53789;51.392;10.234;2023-02-23T00:11:05;97821.97;;;7.39;80.38
66880;BME280;53789;51.392;10.234;2023-02-23T00:11:27;97828.53;;;7.38;80.94
66880;BME280;53789;51.392;10.234;2023-02-23T00:11:49;97819.81;;;7.36;81.17
66880;BME280;53789;51.392;10.234;2023-02-23T00:12:10;97823.66;;;7.35;81.19
66880;BME280;53789;51.392;10.234;2023-02-23T00:12:30;97828.03;;;7.36;80.53
66880;BME280;53789;51.392;10.234;2023-02-23T00:12:50;97823.66;;;7.35;81.58
66880;BME280;53789;51.392;10.234;2023-02-23T00:13:11;97829.66;;;7.37;80.92
66880;BME280;53789;51.392;10.234;2023-02-23T00:13:33;97828.03;;;7.36;81.70
66880;BME280;53789;51.392;10.234;2023-02-23T00:13:54;97827.53;;;7.34;81.39
66880;BME280;53789;51.392;10.234;2023-02-23T00:14:14;97831.06;;;7.34;81.43
66880;BME280;53789;51.392;10.234;2023-02-23T00:14:36;97830.25;;;7.34;81.38
66880;BME280;53789;51.392;10.234;2023-02-23T00:14:56;97836.81;;;7.33;80.59
66880;BME280;53789;51.392;10.234;2023-02-23T00:15:17;97826.69;;;7.33;81.06
66880;BME280;53789;51.392;10.234;2023-02-23T00:15:37;97826.97;;;7.32;81.41
66880;BME280;53789;51.392;10.234;2023-02-23T00:15:57;97834.38;;;7.31;81.37
66880;BME280;53789;51.392;10.234;2023-02-23T00:16:21;97834.38;;;7.31;80.53
66880;BME280;53789;51.392;10.234;2023-02-23T00:16:41;97825.66;;;7.29;81.10
66880;BME280;53789;51.392;10.234;2023-02-23T00:17:02;97829.22;;;7.30;81.59
66880;BME280;53789;51.392;10.234;2023-02-23T00:17:23;97825.13;;;7.27;81.06
66880;BME280;53789;51.392;10.234;2023-02-23T00:17:43;97827.06;;;7.26;81.38
66880;BME280;53789;51.392;10.234;2023-02-23T00:18:03;97826.22;;;7.26;81.08
66880;BME280;53789;51.392;10.234;2023-02-23T00:18:24;97835.28;;;7.26;80.96
66880;BME280;53789;51.392;10.234;2023-02-23T00:18:55;97830.09;;;7.25;81.84
66880;BME280;53789;51.392;10.234;2023-02-23T00:19:16;97827.34;;;7.25;81.56
66880;BME280;53789;51.392;10.234;2023-02-23T00:19:36;97830.09;;;7.25;81.78
66880;BME280;53789;51.392;10.234;2023-02-23T00:19:56;97829.25;;;7.24;82.23
66880;BME280;53789;51.392;10.234;2023-02-23T00:20:17;97832.00;;;7.24;81.49
66880;BME280;53789;51.392;10.234;2023-02-23T00:20:37;97833.13;;;7.23;81.59
66880;BME280;53789;51.392;10.234;2023-02-23T00:20:57;97833.13;;;7.23;81.87
66880;BME280;53789;51.392;10.234;2023-02-23T00:21:29;97838.59;;;7.23;81.70
66880;BME280;53789;51.392;10.234;2023-02-23T00:21:50;97826.81;;;7.23;81.33
66880;BME280;53789;51.392;10.234;2023-02-23T00:22:10;97827.94;;;7.22;81.72
66880;BME280;53789;51.392;10.234;2023-02-23T00:22:30;97826.81;;;7.23;80.98
66880;BME280;53789;51.392;10.234;2023-02-23T00:22:56;97822.78;;;7.20;81.26
66880;BME280;53789;51.392;10.234;2023-02-23T00:23:16;97827.94;;;7.22;82.00
66880;BME280;53789;51.392;10.234;2023-02-23T00:23:36;97830.16;;;7.20;81.17
66880;BME280;53789;51.392;10.234;2023-02-23T00:24:05;97830.16;;;7.20;81.03
66880;BME280;53789;51.392;10.234;2023-02-23T00:24:26;97831.28;;;7.19;82.20
66880;BME280;53789;51.392;10.234;2023-02-23T00:24:46;97827.72;;;7.18;81.68
66880;BME280;53789;51.392;10.234;2023-02-23T00:25:08;97831.56;;;7.17;82.23
66880;BME280;53789;51.392;10.234;2023-02-23T00:25:28;97826.59;;;7.19;81.88
66880;BME280;53789;51.392;10.234;2023-02-23T00:25:49;97823.88;;;7.19;81.45
66880;BME280;53789;51.392;10.234;2023-02-23T00:26:09;97830.16;;;7.20;81.46
66880;BME280;53789;51.392;10.234;2023-02-23T00:26:31;97831.28;;;7.19;81.27
66880;BME280;53789;51.392;10.234;2023-02-23T00:26:52;97827.72;;;7.18;81.95
66880;BME280;53789;51.392;10.234;2023-02-23T00:27:12;97835.91;;;7.18;81.95
66880;BME280;53789;51.392;10.234;2023-02-23T00:27:34;97826.91;;;7.18;81.41
66880;BME280;53789;51.392;10.234;2023-02-23T00:27:54;97833.47;;;7.17;81.32
66880;BME280;53789;51.392;10.234;2023-02-23T00:28:14;97826.09;;;7.17;82.21
66880;BME280;53789;51.392;10.234;2023-02-23T00:28:34;97829.94;;;7.16;81.16
66880;BME280;53789;51.392;10.234;2023-02-23T00:28:56;97828.84;;;7.17;81.97
66880;BME280;53789;51.392;10.234;2023-02-23T00:29:19;97830.44;;;7.18;81.50
66880;BME280;53789;51.392;10.234;2023-02-23T00:29:40;97834.31;;;7.17;82.51
66880;BME280;53789;51.392;10.234;2023-02-23T00:30:01;97835.41;;;7.16;81.43
66880;BME280;53789;51.392;10.234;2023-02-23T00:30:21;97834.59;;;7.16;81.30
66880;BME280;53789;51.392;10.234;2023-02-23T00:30:41;97829.41;;;7.14;81.82
66880;BME280;53789;51.392;10.234;2023-02-23T00:31:02;97832.97;;;7.15;81.90
66880;BME280;53789;51.392;10.234;2023-02-23T00:31:24;97835.69;;;7.15;82.54
66880;BME280;53789;51.392;10.234;2023-02-23T00:31:46;97829.41;;;7.14;81.59
66880;BME280;53789;51.392;10.234;2023-02-23T00:32:07;97834.88;;;7.14;82.07
66880;BME280;53789;51.392;10.234;2023-02-23T00:32:27;97834.06;;;7.14;81.80
66880;BME280;53789;51.392;10.234;2023-02-23T00:32:49;97833.25;;;7.13;82.44
66880;BME280;53789;51.392;10.234;2023-02-23T00:33:10;97832.44;;;7.13;81.88
66880;BME280;53789;51.392;10.234;2023-02-23T00:33:30;97838.72;;;7.13;82.44
66880;BME280;53789;51.392;10.234;2023-02-23T00:33:52;97830.81;;;7.12;82.61
66880;BME280;53789;51.392;10.234;2023-02-23T00:34:15;97830.00;;;7.11;81.90
66880;BME280;53789;51.392;10.234;2023-02-23T00:34:36;97836.28;;;7.12;82.04
66880;BME280;53789;51.392;10.234;2023-02-23T00:34:56;97834.34;;;7.12;81.68
66880;BME280;53789;51.392;10.234;2023-02-23T00:35:16;97831.63;;;7.12;81.89
66880;BME280;53789;51.392;10.234;2023-02-23T00:35:37;97829.69;;;7.13;82.74
66880;BME280;53789;51.392;10.234;2023-02-23T00:36:03;97828.09;;;7.12;81.36
66880;BME280;53789;51.392;10.234;2023-02-23T00:36:30;97836.28;;;7.12;82.59
66880;BME280;53789;51.392;10.234;2023-02-23T00:36:52;97826.97;;;7.13;82.33
66880;BME280;53789;51.392;10.234;2023-02-23T00:37:13;97834.34;;;7.12;81.64
66880;BME280;53789;51.392;10.234;2023-02-23T00:37:33;97830.81;;;7.12;82.08
66880;BME280;53789;51.392;10.234;2023-02-23T00:37:54;97830.81;;;7.12;82.12
66880;BME280;53789;51.392;10.234;2023-02-23T00:38:14;97830.81;;;7.12;82.34
66880;BME280;53789;51.392;10.234;2023-02-23T00:38:35;97836.28;;;7.12;82.15
66880;BME280;53789;51.392;10.234;2023-02-23T00:38:59;97830.81;;;7.12;82.29
66880;BME280;53789;51.392;10.234;2023-02-23T00:39:21;97829.19;;;7.11;82.19
66880;BME280;53789;51.392;10.234;2023-02-23T00:39:42;97833.03;;;7.09;81.92
66880;BME280;53789;51.392;10.234;2023-02-23T00:40:03;97833.03;;;7.09;82.68
66880;BME280;53789;51.392;10.234;2023-02-23T00:40:23;97828.69;;;7.08;82.10
66880;BME280;53789;51.392;10.234;2023-02-23T00:40:43;97832.22;;;7.09;82.02
66880;BME280;53789;51.392;10.234;2023-02-23T00:41:10;97834.94;;;7.09;82.16
66880;BME280;53789;51.392;10.234;2023-02-23T00:41:30;97828.97;;;7.07;82.05
66880;BME280;53789;51.392;10.234;2023-02-23T00:41:51;97825.09;;;7.08;82.25
66880;BME280;53789;51.392;10.234;2023-02-23T00:42:12;97832.81;;;7.06;81.54
66880;BME280;53789;51.392;10.234;2023-02-23T00:42:32;97838.78;;;7.08;81.76
66880;BME280;53789;51.392;10.234;2023-02-23T00:42:52;97832.81;;;7.06;82.10
66880;BME280;53789;51.392;10.234;2023-02-23T00:43:12;97839.38;;;7.05;81.75
66880;BME280;53789;51.392;10.234;2023-02-23T00:43:38;97838.28;;;7.06;82.61
66880;BME280;53789;51.392;10.234;2023-02-23T00:43:59;97838.56;;;7.04;82.38
66880;BME280;53789;51.392;10.234;2023-02-23T00:44:21;97837.47;;;7.05;82.18
66880;BME280;53789;51.392;10.234;2023-02-23T00:44:42;97842.66;;;7.07;82.30
66880;BME280;53789;51.392;10.234;2023-02-23T00:45:03;97828.44;;;7.05;81.77
66880;BME280;53789;51.392;10.234;2023-02-23T00:45:23;97838.56;;;7.04;81.70
66880;BME280;53789;51.392;10.234;2023-02-23T00:45:43;97832.28;;;7.04;81.99
66880;BME280;53789;51.392;10.234;2023-02-23T00:46:05;97833.09;;;7.04;82.47
66880;BME280;53789;51.392;10.234;2023-02-23T00:46:27;97835.84;;;7.04;82.07
66880;BME280;53789;51.392;10.234;2023-02-23T00:46:49;97834.19;;;7.03;82.46
66880;BME280;53789;51.392;10.234;2023-02-23T00:47:09;97833.91;;;7.05;82.62
66880;BME280;53789;51.392;10.234;2023-02-23T00:47:29;97842.09;;;7.05;81.79
66880;BME280;53789;51.392;10.234;2023-02-23T00:47:50;97840.50;;;7.04;82.36
66880;BME280;53789;51.392;10.234;2023-02-23T00:48:10;97829.56;;;7.04;81.54
66880;BME280;53789;51.392;10.234;2023-02-23T00:48:32;97835.03;;;7.04;82.58
66880;BME280;53789;51.392;10.234;2023-02-23T00:48:54;97827.63;;;7.04;82.37
66880;BME280;53789;51.392;10.234;2023-02-23T00:49:14;97834.75;;;7.05;82.31
66880;BME280;53789;51.392;10.234;2023-02-23T00:49:35;97828.44;;;7.05;82.24
66880;BME280;53789;51.392;10.234;2023-02-23T00:49:55;97829.28;;;7.05;82.66
66880;BME280;53789;51.392;10.234;2023-02-23T00:50:16;97831.16;;;7.05;82.08
66880;BME280;53789;51.392;10.234;2023-02-23T00:50:36;97827.34;;;7.06;81.84
66880;BME280;53789;51.392;10.234;2023-02-23T00:51:01;97830.06;;;7.06;82.46
66880;BME280;53789;51.392;10.234;2023-02-23T00:51:24;97834.44;;;7.07;81.75
66880;BME280;53789;51.392;10.234;2023-02-23T00:51:45;97836.06;;;7.08;82.58
66880;BME280;53789;51.392;10.234;2023-02-23T00:52:05;97835.25;;;7.07;82.70
66880;BME280;53789;51.392;10.234;2023-02-23T00:52:26;97836.06;;;7.08;82.39
66880;BME280;53789;51.392;10.234;2023-02-23T00:52:46;97836.88;;;7.08;81.84
66880;BME280;53789;51.392;10.234;2023-02-23T00:53:06;97828.97;;;7.07;82.68
66880;BME280;53789;51.392;10.234;2023-02-23T00:53:27;97835.25;;;7.07;82.74
66880;BME280;53789;51.392;10.234;2023-02-23T00:53:48;97830.56;;;7.08;82.72
66880;BME280;53789;51.392;10.234;2023-02-23T00:54:12;97839.91;;;7.07;82.25
66880;BME280;53789;51.392;10.234;2023-02-23T00:54:32;97832.81;;;7.06;81.82
66880;BME280;53789;51.392;10.234;2023-02-23T00:54:53;97832.81;;;7.06;82.61
66880;BME280;53789;51.392;10.234;2023-02-23T00:55:14;97837.97;;;7.07;82.58
66880;BME280;53789;51.392;10.234;2023-02-23T00:55:34;97834.44;;;7.07;82.54
66880;BME280;53789;51.392;10.234;2023-02-23T00:55:54;97833.59;;;7.06;82.53
66880;BME280;53789;51.392;10.234;2023-02-23T00:56:15;97833.91;;;7.05;82.24
66880;BME280;53789;51.392;10.234;2023-02-23T00:56:35;97832.00;;;7.05;81.51
66880;BME280;53789;51.392;10.234;2023-02-23T00:56:57;97830.06;;;7.06;81.73
66880;BME280;53789;51.392;10.234;2023-02-23T00:57:17;97826.53;;;7.05;82.82
66880;BME280;53789;51.392;10.234;2023-02-23T00:57:38;97834.75;;;7.05;82.66
66880;BME280;53789;51.392;10.234;2023-02-23T00:57:58;97831.16;;;7.05;82.28
66880;BME280;53789;51.392;10.234;2023-02-23T00:58:19;97832.00;;;7.05;81.64
66880;BME280;53789;51.392;10.234;2023-02-23T00:58:40;97835.84;;;7.04;82.13
66880;BME280;53789;51.392;10.234;2023-02-23T00:59:01;97831.47;;;7.03;82.02
66880;BME280;53789;51.392;10.234;2023-02-23T00:59:21;97829.56;;;7.04;82.15
66880;BME280;53789;51.392;10.234;2023-02-23T00:59:41;97826.00;;;7.03;82.09
66880;BME280;53789;51.392;10.234;2023-02-23T01:00:04;97836.13;;;7.03;82.45
66880;BME280;53789;51.392;10.234;2023-02-23T01:00:24;97832.56;;;7.02;82.41
66880;BME280;53789;51.392;10.234;2023-02-23T01:00:45;97830.94;;;7.01;81.91
66880;BME280;53789;51.392;10.234;2023-02-23T01:01:06;97839.97;;;7.02;81.55
66880;BME280;53789;51.392;10.234;2023-02-23T01:01:27;97832.84;;;7.01;82.11
66880;BME280;53789;51.392;10.234;2023-02-23T01:01:48;97833.69;;;7.01;82.21
66880;BME280;53789;51.392;10.234;2023-02-23T01:02:08;97830.94;;;7.01;81.83
66880;BME280;53789;51.392;10.234;2023-02-23T01:02:28;97833.16;;;6.99;82.43
66880;BME280;53789;51.392;10.234;2023-02-23T01:02:48;97827.16;;;6.97;82.19
66880;BME280;53789;51.392;10.234;2023-02-23T01:03:09;97826.06;;;6.98;81.72
66880;BME280;53789;51.392;10.234;2023-02-23T01:03:29;97833.44;;;6.98;82.75
66880;BME280;53789;51.392;10.234;2023-02-23T01:03:50;97829.09;;;6.97;82.10
66880;BME280;53789;51.392;10.234;2023-02-23T01:04:11;97829.91;;;6.97;81.58
66880;BME280;53789;51.392;10.234;2023-02-23T01:04:32;97831.00;;;6.96;82.69
66880;BME280;53789;51.392;10.234;2023-02-23T01:04:52;97830.19;;;6.96;82.26
66880;BME280;53789;51.392;10.234;2023-02-23T01:05:13;97832.94;;;6.96;82.64
66880;BME280;53789;51.392;10.234;2023-02-23T01:05:34;97834.03;;;6.95;82.27
66880;BME280;53789;51.392;10.234;2023-02-23T01:06:02;97832.44;;;6.94;82.60
66880;BME280;53789;51.392;10.234;2023-02-23T01:06:23;97827.25;;;6.92;82.77
66880;BME280;53789;51.392;10.234;2023-02-23T01:06:44;97829.97;;;6.92;82.28
66880;BME280;53789;51.392;10.234;2023-02-23T01:07:04;97832.72;;;6.92;83.16
66880;BME280;53789;51.392;10.234;2023-02-23T01:07:24;97830.28;;;6.90;82.52
66880;BME280;53789;51.392;10.234;2023-02-23T01:07:44;97829.97;;;6.92;82.65
66880;BME280;53789;51.392;10.234;2023-02-23T01:08:05;97830.28;;;6.90;81.97
66880;BME280;53789;51.392;10.234;2023-02-23T01:08:25;97828.34;;;6.91;82.52
66880;BME280;53789;51.392;10.234;2023-02-23T01:08:48;97831.88;;;6.91;82.99
66880;BME280;53789;51.392;10.234;2023-02-23T01:09:12;97827.53;;;6.90;82.14
66880;BME280;53789;51.392;10.234;2023-02-23T01:09:33;97835.75;;;6.90;82.57
66880;BME280;53789;51.392;10.234;2023-02-23T01:09:53;97832.19;;;6.90;82.75
66880;BME280;53789;51.392;10.234;2023-02-23T01:10:14;97836.56;;;6.91;82.10
66880;BME280;53789;51.392;10.234;2023-02-23T01:10:41;97833.00;;;6.90;82.23
66880;BME280;53789;51.392;10.234;2023-02-23T01:11:10;97845.84;;;6.90;82.84
66880;BME280;53789;51.392;10.234;2023-02-23T01:11:31;97827.81;;;6.89;82.12
66880;BME280;53789;51.392;10.234;2023-02-23T01:11:51;97831.38;;;6.89;82.79
66880;BME280;53789;51.392;10.234;2023-02-23T01:12:11;97829.75;;;6.88;82.15
66880;BME280;53789;51.392;10.234;2023-02-23T01:12:32;97835.22;;;6.88;82.12
66880;BME280;53789;51.392;10.234;2023-02-23T01:12:52;97834.41;;;6.88;82.09
66880;BME280;53789;51.392;10.234;2023-02-23T01:13:12;97831.66;;;6.88;82.84
66880;BME280;53789;51.392;10.234;2023-02-23T01:13:33;97835.22;;;6.88;82.10
66880;BME280;53789;51.392;10.234;2023-02-23T01:13:56;97830.84;;;6.87;82.73
66880;BME280;53789;51.392;10.234;2023-02-23T01:14:17;97841.78;;;6.87;82.82
66880;BME280;53789;51.392;10.234;2023-02-23T01:14:38;97834.69;;;6.86;81.73
66880;BME280;53789;51.392;10.234;2023-02-23T01:14:58;97838.22;;;6.87;82.19
66880;BME280;53789;51.392;10.234;2023-02-23T01:15:19;97839.34;;;6.86;82.69
66880;BME280;53789;51.392;10.234;2023-02-23T01:15:41;97837.44;;;6.86;82.76
66880;BME280;53789;51.392;10.234;2023-02-23T01:16:10;97840.16;;;6.86;82.06
66880;BME280;53789;51.392;10.234;2023-02-23T01:16:33;97836.88;;;6.84;82.01
66880;BME280;53789;51.392;10.234;2023-02-23T01:16:53;97829.81;;;6.83;83.00
66880;BME280;53789;51.392;10.234;2023-02-23T01:17:13;97837.72;;;6.85;82.48
66880;BME280;53789;51.392;10.234;2023-02-23T01:17:34;97831.41;;;6.84;81.96
66880;BME280;53789;51.392;10.234;2023-02-23T01:17:54;97840.75;;;6.83;82.70
66880;BME280;53789;51.392;10.234;2023-02-23T01:18:16;97830.63;;;6.84;82.19
66880;BME280;53789;51.392;10.234;2023-02-23T01:18:39;97837.19;;;6.83;82.50
66880;BME280;53789;51.392;10.234;2023-02-23T01:19:02;97826.53;;;6.81;82.99
66880;BME280;53789;51.392;10.234;2023-02-23T01:19:24;97841.03;;;6.82;81.92
66880;BME280;53789;51.392;10.234;2023-02-23T01:19:44;97839.41;;;6.81;82.46
66880;BME280;53789;51.392;10.234;2023-02-23T01:20:05;97835.88;;;6.80;82.44
66880;BME280;53789;51.392;10.234;2023-02-23T01:20:25;97841.34;;;6.80;81.70
66880;BME280;53789;51.392;10.234;2023-02-23T01:20:45;97838.91;;;6.79;82.49
66880;BME280;53789;51.392;10.234;2023-02-23T01:21:15;97840.00;;;6.78;82.70
66880;BME280;53789;51.392;10.234;2023-02-23T01:21:39;97834.53;;;6.78;82.70
66880;BME280;53789;51.392;10.234;2023-02-23T01:21:59;97832.09;;;6.76;82.23
66880;BME280;53789;51.392;10.234;2023-02-23T01:22:20;97845.75;;;6.76;82.37
66880;BME280;53789;51.392;10.234;2023-02-23T01:22:41;97836.72;;;6.76;82.45
66880;BME280;53789;51.392;10.234;2023-02-23T01:23:03;97837.00;;;6.74;81.75
66880;BME280;53789;51.392;10.234;2023-02-23T01:23:24;97836.22;;;6.73;82.07
66880;BME280;53789;51.392;10.234;2023-02-23T01:23:44;97841.66;;;6.73;82.67
66880;BME280;53789;51.392;10.234;2023-02-23T01:24:05;97836.50;;;6.72;82.32
66880;BME280;53789;51.392;10.234;2023-02-23T01:24:26;97833.75;;;6.72;82.31
66880;BME280;53789;51.392;10.234;2023-02-23T01:24:46;97836.50;;;6.72;82.89
66880;BME280;53789;51.392;10.234;2023-02-23T01:25:06;97838.72;;;6.70;82.08
66880;BME280;53789;51.392;10.234;2023-02-23T01:25:27;97841.44;;;6.70;82.36
66880;BME280;53789;51.392;10.234;2023-02-23T01:25:48;97834.34;;;6.69;82.25
66880;BME280;53789;51.392;10.234;2023-02-23T01:26:19;97837.38;;;6.67;82.30
66880;BME280;53789;51.392;10.234;2023-02-23T01:26:43;97832.19;;;6.66;82.80
66880;BME280;53789;51.392;10.234;2023-02-23T01:27:03;97835.72;;;6.66;82.77
66880;BME280;53789;51.392;10.234;2023-02-23T01:27:24;97843.13;;;6.66;82.43
66880;BME280;53789;51.392;10.234;2023-02-23T01:27:44;97843.13;;;6.66;82.83
66880;BME280;53789;51.392;10.234;2023-02-23T01:28:05;97840.41;;;6.66;83.02
66880;BME280;53789;51.392;10.234;2023-02-23T01:28:25;97839.56;;;6.65;83.21
66880;BME280;53789;51.392;10.234;2023-02-23T01:28:50;97840.09;;;6.67;82.41
66880;BME280;53789;51.392;10.234;2023-02-23T01:29:14;97839.31;;;6.67;82.56
66880;BME280;53789;51.392;10.234;2023-02-23T01:29:34;97836.56;;;6.67;82.57
66880;BME280;53789;51.392;10.234;2023-02-23T01:29:55;97840.41;;;6.66;82.00
66880;BME280;53789;51.392;10.234;2023-02-23T01:30:15;97836.56;;;6.67;82.02
66880;BME280;53789;51.392;10.234;2023-02-23T01:30:36;97842.03;;;6.67;81.64
66880;BME280;53789;51.392;10.234;2023-02-23T01:30:57;97830.28;;;6.66;82.23
66880;BME280;53789;51.392;10.234;2023-02-23T01:31:18;97839.56;;;6.65;82.21
66880;BME280;53789;51.392;10.234;2023-02-23T01:31:43;97833.59;;;6.63;82.00
66880;BME280;53789;51.392;10.234;2023-02-23T01:32:03;97837.41;;;6.62;81.93
66880;BME280;53789;51.392;10.234;2023-02-23T01:32:24;97834.69;;;6.62;82.58
66880;BME280;53789;51.392;10.234;2023-02-23T01:32:44;97832.25;;;6.61;81.85
66880;BME280;53789;51.392;10.234;2023-02-23T01:33:05;97838.53;;;6.61;82.36
66880;BME280;53789;51.392;10.234;2023-02-23T01:33:25;97835.81;;;6.61;81.90
66880;BME280;53789;51.392;10.234;2023-02-23T01:33:46;97839.63;;;6.60;82.45
66880;BME280;53789;51.392;10.234;2023-02-23T01:34:07;97837.19;;;6.59;82.11
66880;BME280;53789;51.392;10.234;2023-02-23T01:34:28;97833.66;;;6.58;82.60
66880;BME280;53789;51.392;10.234;2023-02-23T01:34:49;97838.28;;;6.57;82.36
66880;BME280;53789;51.392;10.234;2023-02-23T01:35:10;97832.81;;;6.57;82.78
66880;BME280;53789;51.392;10.234;2023-02-23T01:35:31;97842.94;;;6.57;82.09
66880;BME280;53789;51.392;10.234;2023-02-23T01:35:58;97832.31;;;6.55;82.78
66880;BME280;53789;51.392;10.234;2023-02-23T01:36:19;97840.50;;;6.55;82.15
66880;BME280;53789;51.392;10.234;2023-02-23T01:36:41;97831.50;;;6.55;82.70
66880;BME280;53789;51.392;10.234;2023-02-23T01:37:02;97835.34;;;6.54;82.98
66880;BME280;53789;51.392;10.234;2023-02-23T01:37:22;97836.13;;;6.54;83.19
66880;BME280;53789;51.392;10.234;2023-02-23T01:37:43;97833.41;;;6.54;82.73
66880;BME280;53789;51.392;10.234;2023-02-23T01:38:04;97844.34;;;6.54;82.22
66880;BME280;53789;51.392;10.234;2023-02-23T01:38:24;97844.34;;;6.54;82.71
66880;BME280;53789;51.392;10.234;2023-02-23T01:38:45;97835.63;;;6.52;82.47
66880;BME280;53789;51.392;10.234;2023-02-23T01:39:08;97832.06;;;6.52;82.31
66880;BME280;53789;51.392;10.234;2023-02-23T01:39:31;97828.53;;;6.51;82.09
66880;BME280;53789;51.392;10.234;2023-02-23T01:39:51;97834.00;;;6.51;82.73
66880;BME280;53789;51.392;10.234;2023-02-23T01:40:14;97840.25;;;6.52;83.26
66880;BME280;53789;51.392;10.234;2023-02-23T01:40:35;97835.09;;;6.50;82.60
66880;BME280;53789;51.392;10.234;2023-02-23T01:40:56;97836.22;;;6.49;82.72
66880;BME280;53789;51.392;10.234;2023-02-23T01:41:16;97833.75;;;6.48;81.96
66880;BME280;53789;51.392;10.234;2023-02-23T01:41:37;97827.47;;;6.47;82.73
66880;BME280;53789;51.392;10.234;2023-02-23T01:41:58;97837.59;;;6.47;82.85
66880;BME280;53789;51.392;10.234;2023-02-23T01:42:18;97838.69;;;6.46;82.71
66880;BME280;53789;51.392;10.234;2023-02-23T01:42:40;97833.22;;;6.46;82.13
66880;BME280;53789;51.392;10.234;2023-02-23T01:43:17;97829.97;;;6.44;82.87
66880;BME280;53789;51.392;10.234;2023-02-23T01:45:47;97826.47;;;6.38;83.46
66880;BME280;53789;51.392;10.234;2023-02-23T01:46:08;97834.69;;;6.38;82.99
66880;BME280;53789;51.392;10.234;2023-02-23T01:46:36;97834.69;;;6.38;82.63
66880;BME280;53789;51.392;10.234;2023-02-23T01:46:57;97838.50;;;6.37;83.46
66880;BME280;53789;51.392;10.234;2023-02-23T01:47:18;97841.22;;;6.37;82.77
66880;BME280;53789;51.392;10.234;2023-02-23T01:47:38;97833.03;;;6.37;83.62
66880;BME280;53789;51.392;10.234;2023-02-23T01:48:22;97832.22;;;6.36;83.29
66880;BME280;53789;51.392;10.234;2023-02-23T01:48:42;97841.53;;;6.35;83.22
66880;BME280;53789;51.392;10.234;2023-02-23T01:49:03;97842.34;;;6.36;83.35
66880;BME280;53789;51.392;10.234;2023-02-23T01:49:28;97834.44;;;6.34;83.81
66880;BME280;53789;51.392;10.234;2023-02-23T01:49:50;97835.25;;;6.35;83.57
66880;BME280;53789;51.392;10.234;2023-02-23T01:50:10;97829.28;;;6.33;82.98
66880;BME280;53789;51.392;10.234;2023-02-23T01:51:05;97836.34;;;6.34;83.04
66880;BME280;53789;51.392;10.234;2023-02-23T01:51:30;97837.47;;;6.33;83.38
66880;BME280;53789;51.392;10.234;2023-02-23T01:52:16;97838.28;;;6.33;83.24
66880;BME280;53789;51.392;10.234;2023-02-23T01:52:37;97839.38;;;6.32;83.16
66880;BME280;53789;51.392;10.234;2023-02-23T01:52:58;97841.28;;;6.32;83.55
66880;BME280;53789;51.392;10.234;2023-02-23T01:53:20;97835.84;;;6.32;84.03
66880;BME280;53789;51.392;10.234;2023-02-23T01:53:44;97835.84;;;6.32;84.01
66880;BME280;53789;51.392;10.234;2023-02-23T01:54:18;97830.38;;;6.32;83.56
66880;BME280;53789;51.392;10.234;2023-02-23T01:54:48;97842.94;;;6.33;83.02
66880;BME280;53789;51.392;10.234;2023-02-23T01:55:10;97842.09;;;6.32;83.66
66880;BME280;53789;51.392;10.234;2023-02-23T01:55:32;97836.63;;;6.32;83.25
66880;BME280;53789;51.392;10.234;2023-02-23T01:55:57;97830.38;;;6.32;82.84
66880;BME280;53789;51.392;10.234;2023-02-23T01:56:22;97836.63;;;6.32;82.53
66880;BME280;53789;51.392;10.234;2023-02-23T01:56:47;97835.03;;;6.31;83.34
66880;BME280;53789;51.392;10.234;2023-02-23T01:57:11;97835.84;;;6.32;82.90
66880;BME280;53789;51.392;10.234;2023-02-23T01:57:33;97841.28;;;6.32;83.53